Terminal Aerodrome Forecast
Issued by NWS

Home | Current Version | Previous Version | Text Only | Print | Product List | Glossary Off
Versions: 1 2 3 4 5 6 7 8 9 10 11 12 13

000
FTUS44 KTSA 230520
TAFFYV
TAF
KFYV 230520Z 2306/2406 19003KT P6SM SKC
     FM231000 00000KT 5SM BR BKN250
     FM231600 22006KT P6SM SCT050 BKN250 PROB30 2321/2403 5SM TSRA
      BKN050CB=

USA.gov is the U.S. government's official web portal to all federal, state and local government web resources and services.